Time;durP1;ratioP1;P1;durP2;ratioP2;P2;SDS_P1;SDS_P2;PMS_P1;PMS_P2;Temp;Humidity;BMP_temperature;BMP_pressure;BME280_temperature;BME280_humidity;BME280_pressure;Samples;Min_cycle;Max_cycle;Signal;HPM_P1;HPM_P2
2022/07/27 00:00:46;;;;;;;9.98;1.65;;;17.30;99.90;;;;;;4950031;28;20131;-55
2022/07/27 00:03:13;;;;;;;9.07;1.80;;;17.30;99.90;;;;;;4949857;28;20593;-55
2022/07/27 00:05:40;;;;;;;6.30;1.73;;;17.30;99.90;;;;;;4950063;28;20506;-54
2022/07/27 00:08:07;;;;;;;5.88;1.58;;;17.30;99.90;;;;;;4949801;28;20512;-54
2022/07/27 00:10:34;;;;;;;9.20;2.03;;;17.30;99.90;;;;;;4950013;29;20162;-54
2022/07/27 00:13:02;;;;;;;7.13;1.27;;;17.20;99.90;;;;;;4949802;28;20079;-53
2022/07/27 00:15:29;;;;;;;9.32;1.83;;;17.30;99.90;;;;;;4949848;28;20561;-55
2022/07/27 00:17:59;;;;;;;6.10;1.98;;;17.30;99.90;;;;;;4949611;28;20078;-52
2022/07/27 00:20:27;;;;;;;7.50;2.38;;;17.30;99.90;;;;;;4950028;28;20082;-50
2022/07/27 00:22:54;;;;;;;7.03;1.40;;;17.30;99.90;;;;;;4949585;28;21101;-54
2022/07/27 00:25:21;;;;;;;6.60;1.80;;;17.30;99.90;;;;;;4266005;28;10000734;-55
2022/07/27 00:27:48;;;;;;;9.00;1.90;;;17.30;99.90;;;;;;4946669;28;20487;-52
2022/07/27 00:30:15;;;;;;;8.25;1.83;;;17.20;99.90;;;;;;4948887;28;20110;-54
2022/07/27 00:32:42;;;;;;;8.93;2.00;;;17.30;99.90;;;;;;4949539;28;20082;-54
2022/07/27 00:35:09;;;;;;;14.27;2.47;;;17.30;99.90;;;;;;4952178;28;20577;-52
2022/07/27 00:37:36;;;;;;;13.27;2.42;;;17.30;99.90;;;;;;4953056;28;20087;-50
2022/07/27 00:40:03;;;;;;;9.93;2.30;;;17.30;99.90;;;;;;4953087;28;20422;-53
2022/07/27 00:42:30;;;;;;;13.32;2.78;;;17.30;99.90;;;;;;4953180;28;20109;-51
2022/07/27 00:44:57;;;;;;;7.80;1.63;;;17.20;99.90;;;;;;4952986;28;20451;-54
2022/07/27 00:47:24;;;;;;;8.73;2.22;;;17.20;99.90;;;;;;4952740;28;20083;-54
2022/07/27 00:49:51;;;;;;;9.55;1.85;;;17.20;99.90;;;;;;4952903;28;20079;-56
2022/07/27 00:52:18;;;;;;;8.88;1.85;;;17.20;99.90;;;;;;4952809;28;20078;-54
2022/07/27 00:54:46;;;;;;;7.07;1.60;;;17.20;99.90;;;;;;4952979;28;20078;-53
2022/07/27 00:57:14;;;;;;;14.98;2.03;;;17.20;99.90;;;;;;4952629;28;20130;-54
2022/07/27 00:59:41;;;;;;;9.02;1.85;;;17.20;99.90;;;;;;4952765;29;20118;-55
2022/07/27 01:02:08;;;;;;;10.32;2.25;;;17.10;99.90;;;;;;4953172;28;20073;-53
2022/07/27 01:04:38;;;;;;;10.38;1.92;;;17.10;99.90;;;;;;4949432;29;20102;-53
2022/07/27 01:07:05;;;;;;;9.88;2.28;;;17.10;99.90;;;;;;4952983;28;20063;-55
2022/07/27 01:12:19;;;;;;;5.18;1.50;;;17.20;99.90;;;;;;4944524;29;20134;-53
2022/07/27 01:14:47;;;;;;;7.85;1.92;;;17.10;99.90;;;;;;4952156;29;20047;-53
2022/07/27 01:17:15;;;;;;;10.43;2.08;;;17.10;99.90;;;;;;4952580;28;20138;-54
2022/07/27 01:19:42;;;;;;;6.22;1.70;;;17.10;99.90;;;;;;4950729;29;20083;-54
2022/07/27 01:22:09;;;;;;;6.85;2.22;;;17.20;99.90;;;;;;4952407;28;20083;-53
2022/07/27 01:24:35;;;;;;;7.43;1.50;;;17.10;99.90;;;;;;4952201;28;20135;-53
2022/07/27 01:27:03;;;;;;;8.65;1.83;;;17.20;99.90;;;;;;4950783;28;20126;-54
2022/07/27 01:29:30;;;;;;;4.72;1.60;;;17.20;99.90;;;;;;4949768;29;20055;-55
2022/07/27 01:31:57;;;;;;;6.60;1.98;;;17.10;99.90;;;;;;4950979;28;20059;-54
2022/07/27 01:34:24;;;;;;;7.72;2.55;;;17.20;99.90;;;;;;4952204;28;20047;-53
2022/07/27 01:36:50;;;;;;;12.52;2.00;;;17.20;99.90;;;;;;4951961;28;20142;-52
2022/07/27 01:39:17;;;;;;;10.25;2.03;;;17.10;99.90;;;;;;4952292;28;20130;-53
2022/07/27 01:41:45;;;;;;;10.80;1.90;;;17.20;99.90;;;;;;4952243;28;20118;-53
2022/07/27 01:44:11;;;;;;;4.10;1.60;;;17.20;99.90;;;;;;4951792;28;20554;-51
2022/07/27 01:46:38;;;;;;;8.05;2.03;;;17.20;99.90;;;;;;4951112;28;20055;-55
2022/07/27 01:49:05;;;;;;;6.63;1.73;;;17.20;99.90;;;;;;4951811;28;20047;-55
2022/07/27 01:51:32;;;;;;;6.95;1.83;;;17.10;99.90;;;;;;4951665;28;20486;-54
2022/07/27 01:53:59;;;;;;;6.20;1.52;;;17.10;99.90;;;;;;4951771;28;20079;-55
2022/07/27 01:56:26;;;;;;;7.28;1.63;;;17.10;99.90;;;;;;4951687;28;20439;-53
2022/07/27 01:58:54;;;;;;;7.35;1.77;;;17.10;99.90;;;;;;4951677;28;20155;-51
2022/07/27 02:01:20;;;;;;;12.13;2.25;;;17.10;99.90;;;;;;4950358;28;20131;-54
2022/07/27 02:03:47;;;;;;;15.32;3.95;;;17.20;99.90;;;;;;4951735;28;20051;-55
2022/07/27 02:06:14;;;;;;;10.95;2.20;;;17.10;99.90;;;;;;4951446;28;20054;-55
2022/07/27 02:08:41;;;;;;;7.65;1.52;;;17.10;99.90;;;;;;4951562;28;20154;-55
2022/07/27 02:13:53;;;;;;;8.90;1.60;;;17.10;99.90;;;;;;4950600;29;20059;-53
2022/07/27 02:16:20;;;;;;;8.95;2.35;;;17.20;99.90;;;;;;4951187;28;20138;-55
2022/07/27 02:18:50;;;;;;;32.55;5.53;;;17.20;99.90;;;;;;4948247;29;20454;-54
2022/07/27 02:21:16;;;;;;;7.22;1.98;;;17.20;99.90;;;;;;4951510;28;20299;-52
2022/07/27 02:23:44;;;;;;;8.85;2.28;;;17.10;99.90;;;;;;4951009;28;20138;-53
2022/07/27 02:26:11;;;;;;;13.63;3.15;;;17.10;99.90;;;;;;4951030;28;20467;-53
2022/07/27 02:28:38;;;;;;;14.15;2.03;;;17.10;99.90;;;;;;4950959;28;20422;-54
2022/07/27 02:31:04;;;;;;;10.77;1.73;;;17.20;99.90;;;;;;4951065;28;20054;-52
2022/07/27 02:33:32;;;;;;;9.25;1.92;;;17.20;99.90;;;;;;4951039;28;20074;-53
2022/07/27 02:35:59;;;;;;;6.80;2.42;;;17.20;99.90;;;;;;4951004;28;20357;-54
2022/07/27 02:38:25;;;;;;;7.72;1.70;;;17.20;99.90;;;;;;4950739;28;20578;-51
2022/07/27 02:40:52;;;;;;;8.75;2.22;;;17.20;99.90;;;;;;4951107;28;20039;-57
2022/07/27 02:43:19;;;;;;;9.43;2.65;;;17.20;99.90;;;;;;4951128;28;20051;-51
2022/07/27 02:45:46;;;;;;;2.67;1.15;;;17.20;99.90;;;;;;4950947;28;20134;-54
2022/07/27 02:48:13;;;;;;;5.65;2.05;;;17.20;99.90;;;;;;4950510;28;20134;-53
2022/07/27 02:50:39;;;;;;;6.10;1.85;;;17.20;99.90;;;;;;4950669;28;20081;-54
2022/07/27 02:53:06;;;;;;;5.65;1.50;;;17.20;99.90;;;;;;4950607;28;20082;-52
2022/07/27 02:55:33;;;;;;;7.50;2.08;;;17.30;99.90;;;;;;4950845;28;20134;-54
2022/07/27 02:58:00;;;;;;;9.57;2.83;;;17.20;99.90;;;;;;4950154;28;20083;-51
2022/07/27 03:00:27;;;;;;;9.60;2.63;;;17.30;99.90;;;;;;4950645;28;20138;-51
2022/07/27 03:02:54;;;;;;;10.32;2.90;;;17.20;99.90;;;;;;4950434;28;20087;-52
2022/07/27 03:05:20;;;;;;;6.57;1.70;;;17.20;99.90;;;;;;4947093;29;20047;-51
2022/07/27 03:07:47;;;;;;;6.32;1.42;;;17.20;99.90;;;;;;4950353;28;20510;-54
2022/07/27 03:10:14;;;;;;;6.18;1.35;;;17.20;99.90;;;;;;4950299;28;20134;-53
2022/07/27 03:12:42;;;;;;;11.48;3.22;;;17.20;99.90;;;;;;4950395;28;20079;-55
2022/07/27 03:15:09;;;;;;;4.15;1.30;;;17.20;99.90;;;;;;4950238;28;20142;-53
2022/07/27 03:17:36;;;;;;;6.45;2.17;;;17.20;99.90;;;;;;4950169;29;20071;-53
2022/07/27 03:20:03;;;;;;;4.38;1.23;;;17.20;99.90;;;;;;4950482;28;20135;-55
2022/07/27 03:22:33;;;;;;;4.93;1.25;;;17.20;99.90;;;;;;4950162;29;20736;-54
2022/07/27 03:25:00;;;;;;;8.57;1.75;;;17.10;99.90;;;;;;4950320;28;20047;-54
2022/07/27 03:27:27;;;;;;;7.15;1.50;;;17.10;99.90;;;;;;4949973;28;20071;-54
2022/07/27 03:29:55;;;;;;;10.98;1.98;;;17.10;99.90;;;;;;4945328;29;20106;-53
2022/07/27 03:32:22;;;;;;;6.50;1.20;;;17.10;99.90;;;;;;4950535;28;20114;-52
2022/07/27 03:34:48;;;;;;;4.25;1.45;;;17.20;99.90;;;;;;4950476;28;20457;-51
2022/07/27 03:37:16;;;;;;;5.45;1.77;;;17.20;99.90;;;;;;4950163;28;20510;-54
2022/07/27 03:39:42;;;;;;;7.15;1.20;;;17.20;99.90;;;;;;4950110;28;20137;-53
2022/07/27 03:42:11;;;;;;;8.73;1.05;;;17.10;99.90;;;;;;4950162;28;20530;-52
2022/07/27 03:44:38;;;;;;;9.35;1.40;;;17.10;99.90;;;;;;4948767;29;20048;-53
2022/07/27 03:47:04;;;;;;;5.13;1.33;;;17.10;99.90;;;;;;4949951;28;20150;-53
2022/07/27 03:49:31;;;;;;;5.28;1.50;;;17.10;99.90;;;;;;4949714;28;20058;-52
2022/07/27 03:51:58;;;;;;;5.78;1.98;;;17.10;99.90;;;;;;4950211;28;20040;-53
2022/07/27 03:54:25;;;;;;;11.43;1.95;;;17.10;99.90;;;;;;4949941;28;20047;-53
2022/07/27 03:56:52;;;;;;;7.85;1.35;;;17.10;99.90;;;;;;4949968;29;20040;-52
2022/07/27 03:59:19;;;;;;;5.85;1.23;;;17.10;99.90;;;;;;4949679;28;20126;-49
2022/07/27 04:01:46;;;;;;;5.25;1.27;;;17.10;99.90;;;;;;4949793;28;20525;-51
2022/07/27 04:04:13;;;;;;;2.97;1.20;;;17.10;99.90;;;;;;4947664;28;20079;-50
2022/07/27 04:06:39;;;;;;;6.50;1.38;;;17.10;99.90;;;;;;4949759;28;20043;-52
2022/07/27 04:09:06;;;;;;;3.80;1.17;;;17.00;99.90;;;;;;4951055;28;20050;-54
2022/07/27 04:11:35;;;;;;;5.00;1.13;;;17.00;99.90;;;;;;4953324;28;20079;-50
2022/07/27 04:14:09;;;;;;;5.80;1.13;;;17.10;99.90;;;;;;4953460;28;20053;-51
2022/07/27 04:16:38;;;;;;;5.47;1.10;;;17.10;99.90;;;;;;4953923;28;20058;-53
2022/07/27 04:19:05;;;;;;;3.03;0.90;;;17.00;99.90;;;;;;4953498;28;20047;-51
2022/07/27 04:21:33;;;;;;;2.47;1.05;;;17.00;99.90;;;;;;4953469;28;20049;-50
2022/07/27 04:24:01;;;;;;;6.05;1.48;;;17.00;99.90;;;;;;4953480;28;20470;-48
2022/07/27 04:26:28;;;;;;;7.80;1.88;;;17.00;99.90;;;;;;4953101;28;20102;-51
2022/07/27 04:28:54;;;;;;;5.20;1.30;;;16.90;99.90;;;;;;4952993;28;20051;-54
2022/07/27 04:31:22;;;;;;;16.80;1.30;;;17.00;99.90;;;;;;4952011;29;20039;-53
2022/07/27 04:33:49;;;;;;;5.45;1.23;;;17.00;99.90;;;;;;4953537;28;20114;-52
2022/07/27 04:36:15;;;;;;;9.02;1.80;;;17.00;99.90;;;;;;4952838;28;20130;-51
2022/07/27 04:38:42;;;;;;;4.18;1.48;;;17.10;99.90;;;;;;4953356;28;20119;-53
2022/07/27 04:41:09;;;;;;;5.18;1.38;;;17.10;99.90;;;;;;4953302;28;20093;-54
2022/07/27 04:43:35;;;;;;;3.78;1.73;;;17.10;99.90;;;;;;4950162;29;20134;-52
2022/07/27 04:46:05;;;;;;;5.63;1.65;;;17.00;99.90;;;;;;4953028;28;20557;-53
2022/07/27 04:48:38;;;;;;;7.45;1.48;;;17.00;99.90;;;;;;4952169;28;20093;-53
2022/07/27 04:51:07;;;;;;;7.38;1.50;;;17.00;99.90;;;;;;4953002;28;20050;-53
2022/07/27 04:53:35;;;;;;;4.80;1.35;;;17.00;99.90;;;;;;4952752;28;20066;-54
2022/07/27 04:56:19;;;;;;;7.63;1.38;;;17.10;99.90;;;;;;4953007;28;20047;-51
2022/07/27 04:58:46;;;;;;;3.10;0.95;;;17.10;99.90;;;;;;4952713;28;20494;-52
2022/07/27 05:01:13;;;;;;;10.50;1.98;;;17.10;99.90;;;;;;4952814;28;20045;-52
2022/07/27 05:03:41;;;;;;;3.20;0.77;;;17.10;99.90;;;;;;4952759;28;20102;-50
2022/07/27 05:06:08;;;;;;;4.55;1.35;;;17.10;99.90;;;;;;4952774;28;20047;-52
2022/07/27 05:08:35;;;;;;;9.73;1.48;;;17.10;99.90;;;;;;4952855;28;20139;-52
2022/07/27 05:11:02;;;;;;;2.75;1.02;;;17.20;99.90;;;;;;4952589;29;20483;-53
2022/07/27 05:13:28;;;;;;;8.50;1.40;;;17.10;99.90;;;;;;4952653;28;20043;-54
2022/07/27 05:15:55;;;;;;;4.07;1.50;;;17.20;99.90;;;;;;4952580;28;20131;-52
2022/07/27 05:18:23;;;;;;;4.95;1.65;;;17.20;99.90;;;;;;4952173;28;20130;-53
2022/07/27 05:20:49;;;;;;;10.35;2.63;;;17.20;99.90;;;;;;4950901;28;20130;-51
2022/07/27 05:23:16;;;;;;;5.13;1.08;;;17.20;99.90;;;;;;4951004;29;20121;-52
2022/07/27 05:25:43;;;;;;;10.18;1.27;;;17.30;99.90;;;;;;4951255;29;20131;-53
2022/07/27 05:28:11;;;;;;;7.78;1.23;;;17.30;99.90;;;;;;4951938;28;20093;-52
2022/07/27 05:30:37;;;;;;;6.05;1.33;;;17.30;99.90;;;;;;4952169;29;20053;-52
2022/07/27 05:33:04;;;;;;;5.85;1.17;;;17.30;99.90;;;;;;4951861;28;20056;-51
2022/07/27 05:35:31;;;;;;;3.95;1.23;;;17.30;99.90;;;;;;4952403;28;20043;-49
2022/07/27 05:37:58;;;;;;;4.97;1.40;;;17.30;99.90;;;;;;4951944;28;20090;-53
2022/07/27 05:40:26;;;;;;;7.25;2.05;;;17.30;99.90;;;;;;4952249;28;20082;-51
2022/07/27 05:42:53;;;;;;;5.75;0.90;;;17.30;99.90;;;;;;4952150;28;20141;-55
2022/07/27 05:45:19;;;;;;;4.72;1.05;;;17.20;99.90;;;;;;4951894;28;20051;-53
2022/07/27 05:47:46;;;;;;;5.65;0.90;;;17.30;99.90;;;;;;4951812;28;20058;-58
2022/07/27 05:50:13;;;;;;;6.50;0.95;;;17.30;99.90;;;;;;4952105;28;20054;-51
2022/07/27 05:52:41;;;;;;;5.97;1.17;;;17.30;99.90;;;;;;4951877;28;20105;-51
2022/07/27 05:55:09;;;;;;;6.80;1.08;;;17.30;99.90;;;;;;4951637;28;20051;-54
2022/07/27 05:57:36;;;;;;;4.38;0.98;;;17.30;99.90;;;;;;4951445;29;20094;-54
2022/07/27 06:00:06;;;;;;;11.25;1.27;;;17.40;99.90;;;;;;4951620;28;20510;-52
2022/07/27 06:02:33;;;;;;;2.97;1.20;;;17.30;99.90;;;;;;4950509;29;20083;-52
2022/07/27 06:05:00;;;;;;;12.98;1.60;;;17.40;99.90;;;;;;4951303;28;20079;-52
2022/07/27 06:10:16;;;;;;;6.50;1.05;;;17.50;99.90;;;;;;4942965;28;20054;-53
2022/07/27 06:12:43;;;;;;;5.95;1.55;;;17.50;99.90;;;;;;4951090;29;20411;-47
2022/07/27 06:15:10;;;;;;;8.10;1.88;;;17.50;99.90;;;;;;4951381;28;20067;-48
2022/07/27 06:17:37;;;;;;;4.88;1.08;;;17.50;99.90;;;;;;4951358;28;20098;-52
2022/07/27 06:20:05;;;;;;;7.40;2.00;;;17.50;99.90;;;;;;4934078;29;20055;-52
2022/07/27 06:22:32;;;;;;;13.25;1.83;;;17.60;99.90;;;;;;4950429;29;20040;-51
2022/07/27 06:24:58;;;;;;;11.30;1.40;;;17.70;99.90;;;;;;4950779;28;20606;-52
2022/07/27 06:27:25;;;;;;;4.93;1.33;;;17.80;99.90;;;;;;4950942;28;20059;-54
2022/07/27 06:29:55;;;;;;;18.63;2.83;;;17.80;99.90;;;;;;4950982;28;20051;-52
2022/07/27 06:32:22;;;;;;;6.38;1.58;;;17.90;99.90;;;;;;4950578;28;20047;-50
2022/07/27 06:34:49;;;;;;;6.53;1.52;;;17.90;99.90;;;;;;4950957;28;20075;-53
2022/07/27 06:37:16;;;;;;;7.10;1.48;;;18.00;99.90;;;;;;4951007;28;20047;-55
2022/07/27 06:39:45;;;;;;;4.05;1.30;;;17.90;99.90;;;;;;4950619;28;20055;-50
2022/07/27 06:42:13;;;;;;;4.13;1.05;;;18.00;99.90;;;;;;4951002;28;20047;-54
2022/07/27 06:44:40;;;;;;;9.98;2.10;;;18.00;99.90;;;;;;4950799;28;20090;-49
2022/07/27 06:47:06;;;;;;;10.02;1.23;;;18.00;99.90;;;;;;4950781;28;20050;-53
2022/07/27 06:49:33;;;;;;;11.90;1.88;;;18.10;99.90;;;;;;4939675;28;20051;-52
2022/07/27 06:52:00;;;;;;;9.32;1.60;;;18.10;99.90;;;;;;4950788;28;20051;-53
2022/07/27 06:54:27;;;;;;;4.25;1.00;;;18.20;99.90;;;;;;4950038;28;20444;-53
2022/07/27 06:56:54;;;;;;;7.32;1.30;;;18.20;99.90;;;;;;4950709;28;20071;-54
2022/07/27 06:59:21;;;;;;;7.40;1.00;;;18.20;99.90;;;;;;4950455;28;20084;-51
2022/07/27 07:01:47;;;;;;;6.63;1.25;;;18.20;99.90;;;;;;4950556;28;20134;-53
2022/07/27 07:04:15;;;;;;;6.82;1.10;;;18.30;99.90;;;;;;4950374;28;20059;-53
2022/07/27 07:06:41;;;;;;;9.73;2.00;;;18.30;99.90;;;;;;4947035;29;20510;-53
2022/07/27 07:09:08;;;;;;;11.07;1.60;;;18.40;99.90;;;;;;4950471;28;20094;-51
2022/07/27 07:11:36;;;;;;;7.63;1.23;;;18.30;99.90;;;;;;4950319;28;20055;-54
2022/07/27 07:14:03;;;;;;;4.03;1.15;;;18.40;99.90;;;;;;4940053;29;20054;-53
2022/07/27 07:16:30;;;;;;;6.00;1.27;;;18.40;99.90;;;;;;4949924;28;20074;-55
2022/07/27 07:18:56;;;;;;;13.68;1.10;;;18.50;99.90;;;;;;4950449;28;20083;-53
2022/07/27 07:21:23;;;;;;;2.60;1.05;;;18.50;99.90;;;;;;4949884;28;20043;-54
2022/07/27 07:23:50;;;;;;;6.97;1.63;;;18.50;99.90;;;;;;4950117;28;20142;-51
2022/07/27 07:26:17;;;;;;;13.32;2.13;;;18.50;99.90;;;;;;4950261;28;20131;-54
2022/07/27 07:28:44;;;;;;;9.27;1.95;;;18.50;99.90;;;;;;4949710;28;20090;-52
2022/07/27 07:31:11;;;;;;;8.10;1.33;;;18.50;99.90;;;;;;4949856;28;20085;-54
2022/07/27 07:33:37;;;;;;;5.47;1.80;;;18.60;99.90;;;;;;4949964;28;20098;-54
2022/07/27 07:36:05;;;;;;;5.03;2.20;;;18.60;99.90;;;;;;4949718;28;20090;-52
2022/07/27 07:38:41;;;;;;;5.30;1.30;;;18.60;99.90;;;;;;4949772;28;20102;-51
2022/07/27 07:41:08;;;;;;;5.47;1.10;;;18.60;99.90;;;;;;4949672;28;20070;-54
2022/07/27 07:43:37;;;;;;;3.55;1.02;;;18.60;99.90;;;;;;4949338;28;20105;-54
2022/07/27 07:46:04;;;;;;;8.55;1.30;;;18.70;99.90;;;;;;4949883;28;20043;-54
2022/07/27 07:48:31;;;;;;;7.18;0.98;;;18.70;99.90;;;;;;4941380;29;20471;-56
2022/07/27 07:50:58;;;;;;;6.35;1.20;;;18.70;99.90;;;;;;4948289;29;20120;-54
2022/07/27 07:53:25;;;;;;;6.72;1.10;;;18.80;99.90;;;;;;4949735;28;20047;-52
2022/07/27 07:55:52;;;;;;;6.60;1.17;;;18.80;99.90;;;;;;4949945;28;20146;-54
2022/07/27 07:58:19;;;;;;;7.05;1.75;;;18.90;99.90;;;;;;4949472;28;20090;-51
2022/07/27 08:00:46;;;;;;;12.10;1.17;;;18.90;99.90;;;;;;4949936;28;20055;-52
2022/07/27 08:03:13;;;;;;;9.73;1.15;;;18.90;99.90;;;;;;4949366;29;20459;-53
2022/07/27 08:05:39;;;;;;;4.15;1.50;;;18.90;99.90;;;;;;4950016;28;20051;-53
2022/07/27 08:08:06;;;;;;;10.15;1.70;;;18.90;99.90;;;;;;4949612;28;20098;-53
2022/07/27 08:10:33;;;;;;;3.95;1.10;;;18.90;99.90;;;;;;4949748;28;20059;-53
2022/07/27 08:13:00;;;;;;;4.43;1.30;;;18.90;99.90;;;;;;4949332;28;20079;-55
2022/07/27 08:15:27;;;;;;;3.80;1.13;;;18.90;99.90;;;;;;4949937;28;20047;-51
2022/07/27 08:18:04;;;;;;;6.45;1.45;;;18.90;99.90;;;;;;4949779;28;20047;-51
2022/07/27 08:20:32;;;;;;;6.40;1.48;;;19.00;99.90;;;;;;4948241;29;20058;-54
2022/07/27 08:22:59;;;;;;;12.88;2.20;;;19.10;99.90;;;;;;4949337;28;20067;-53
2022/07/27 08:25:26;;;;;;;5.00;1.75;;;19.10;99.90;;;;;;4949780;28;20487;-48
2022/07/27 08:27:53;;;;;;;8.40;1.40;;;19.20;99.90;;;;;;4948219;28;20185;-53
2022/07/27 08:30:22;;;;;;;9.27;1.48;;;19.30;99.90;;;;;;4949404;28;20099;-52
2022/07/27 08:32:49;;;;;;;9.98;1.20;;;19.40;99.90;;;;;;4948363;29;20078;-54
2022/07/27 08:35:17;;;;;;;5.75;1.30;;;19.50;99.90;;;;;;4949432;28;20051;-52
2022/07/27 08:37:44;;;;;;;6.93;0.90;;;19.40;99.90;;;;;;4949590;28;20079;-55
2022/07/27 08:40:12;;;;;;;3.53;0.75;;;19.50;99.90;;;;;;4949069;28;20135;-51
2022/07/27 08:43:00;;;;;;;3.53;1.73;;;19.50;99.90;;;;;;4948991;29;20047;-53
2022/07/27 08:45:27;;;;;;;1.20;0.50;;;19.50;98.90;;;;;;4949251;28;20087;-53
2022/07/27 08:47:53;;;;;;;2.92;0.75;;;19.60;98.40;;;;;;4949560;29;20132;-50
2022/07/27 08:50:24;;;;;;;5.97;0.90;;;19.60;97.80;;;;;;4928942;29;20047;-52
2022/07/27 08:53:04;;;;;;;7.80;1.20;;;19.50;97.80;;;;;;4942877;29;20160;-54
2022/07/27 08:55:32;;;;;;;2.63;1.02;;;19.50;97.00;;;;;;4949298;28;20483;-52
2022/07/27 08:57:59;;;;;;;6.28;1.65;;;19.50;97.60;;;;;;4952708;29;20507;-54
2022/07/27 09:00:29;;;;;;;2.63;1.00;;;19.50;97.80;;;;;;4949071;29;20509;-52
2022/07/27 09:02:56;;;;;;;10.40;1.45;;;19.60;97.90;;;;;;4952984;28;20051;-56
2022/07/27 09:05:23;;;;;;;1.88;0.80;;;19.70;97.80;;;;;;4952577;28;20054;-55
2022/07/27 09:07:53;;;;;;;6.55;1.25;;;19.80;97.50;;;;;;4942428;29;20075;-56
2022/07/27 09:10:31;;;;;;;4.75;0.80;;;19.90;97.00;;;;;;4952585;28;20095;-56
2022/07/27 09:12:58;;;;;;;2.42;1.10;;;20.00;95.30;;;;;;4952439;28;20079;-54
2022/07/27 09:15:25;;;;;;;3.70;0.80;;;20.10;95.80;;;;;;4952509;28;20083;-54
2022/07/27 09:18:21;;;;;;;3.97;1.02;;;20.30;95.50;;;;;;4952550;28;20142;-54
2022/07/27 09:21:12;;;;;;;2.55;0.70;;;20.40;94.50;;;;;;4952029;28;20207;-53
2022/07/27 09:23:40;;;;;;;3.97;0.82;;;20.40;92.80;;;;;;4944316;29;20090;-49
2022/07/27 09:26:11;;;;;;;3.38;1.02;;;20.50;94.10;;;;;;4950735;29;20490;-50
2022/07/27 09:28:57;;;;;;;6.40;1.20;;;20.60;94.00;;;;;;4951972;28;20076;-54
2022/07/27 09:31:24;;;;;;;5.40;0.90;;;20.80;94.60;;;;;;4952148;28;20378;-54
2022/07/27 09:33:53;;;;;;;2.50;1.00;;;20.90;93.80;;;;;;4952358;28;20371;-53
2022/07/27 09:36:21;;;;;;;6.43;1.20;;;21.10;93.10;;;;;;4951562;28;20586;-55
2022/07/27 09:39:04;;;;;;;6.32;1.33;;;21.20;92.80;;;;;;4952005;28;20106;-56
2022/07/27 09:41:42;;;;;;;9.05;1.23;;;21.20;91.20;;;;;;4951833;28;20051;-54
2022/07/27 09:44:09;;;;;;;5.00;1.52;;;21.30;91.40;;;;;;4942350;29;20051;-57
2022/07/27 09:46:56;;;;;;;5.90;1.40;;;21.40;92.20;;;;;;4950837;28;20125;-53
2022/07/27 09:49:30;;;;;;;1.65;0.88;;;21.30;92.10;;;;;;4950593;29;20126;-54
2022/07/27 09:51:58;;;;;;;2.55;0.55;;;21.40;91.40;;;;;;4951497;29;20058;-54
2022/07/27 09:54:40;;;;;;;1.65;0.90;;;21.50;91.50;;;;;;4951845;28;20098;-54
2022/07/27 09:57:08;;;;;;;6.32;1.42;;;21.60;90.20;;;;;;4951412;28;20051;-53
2022/07/27 09:59:34;;;;;;;4.70;1.35;;;21.80;91.50;;;;;;4951612;28;20134;-51
2022/07/27 10:02:01;;;;;;;2.95;0.95;;;22.00;91.20;;;;;;4951517;28;20054;-51
2022/07/27 10:04:28;;;;;;;8.20;1.77;;;22.10;91.10;;;;;;4951576;28;20047;-52
2022/07/27 10:06:55;;;;;;;5.32;0.93;;;22.20;90.20;;;;;;4933464;29;20518;-55
2022/07/27 10:09:35;;;;;;;9.27;1.67;;;22.20;90.40;;;;;;4928734;29;20106;-56
2022/07/27 10:12:03;;;;;;;3.42;0.90;;;22.20;90.50;;;;;;4946189;29;20162;-54
2022/07/27 10:14:31;;;;;;;5.35;1.17;;;22.20;89.90;;;;;;4950384;29;20688;-53
2022/07/27 10:16:57;;;;;;;4.38;1.38;;;22.30;88.80;;;;;;4951208;28;20142;-53
2022/07/27 10:19:33;;;;;;;3.35;0.98;;;22.20;88.80;;;;;;4949921;29;20385;-53
2022/07/27 10:22:00;;;;;;;7.80;1.35;;;22.10;88.10;;;;;;4934237;29;20098;-50
2022/07/27 10:24:30;;;;;;;4.53;1.85;;;22.10;89.90;;;;;;4950901;28;20130;-53
2022/07/27 10:26:57;;;;;;;5.75;0.90;;;22.10;89.00;;;;;;4950897;28;20074;-56
2022/07/27 10:29:24;;;;;;;3.33;1.42;;;22.00;89.00;;;;;;4950802;28;20087;-55
2022/07/27 10:31:53;;;;;;;8.02;1.25;;;22.00;89.40;;;;;;4950793;28;20067;-53
2022/07/27 10:34:37;;;;;;;7.40;1.70;;;22.10;88.30;;;;;;4950937;28;20047;-52
2022/07/27 10:37:08;;;;;;;6.90;1.38;;;22.20;84.30;;;;;;4950479;28;20102;-54
2022/07/27 10:39:37;;;;;;;6.55;1.75;;;22.30;86.60;;;;;;4950384;28;20134;-53
2022/07/27 10:42:27;;;;;;;7.20;1.10;;;22.50;87.40;;;;;;4950772;28;20075;-54
2022/07/27 10:44:56;;;;;;;5.03;1.17;;;22.90;81.70;;;;;;4950736;28;20110;-56
2022/07/27 10:47:28;;;;;;;4.45;1.20;;;23.20;84.20;;;;;;4951047;28;20150;-53
2022/07/27 10:50:14;;;;;;;7.05;1.63;;;23.40;79.90;;;;;;4949216;29;20051;-52
2022/07/27 10:52:54;;;;;;;7.53;1.13;;;23.30;75.80;;;;;;4939584;29;20051;-52
2022/07/27 10:55:34;;;;;;;6.88;1.33;;;23.40;75.20;;;;;;4950523;28;20199;-53
2022/07/27 10:58:09;;;;;;;6.18;1.27;;;23.50;73.10;;;;;;4940773;29;20079;-50
2022/07/27 11:00:48;;;;;;;4.38;1.10;;;23.30;77.50;;;;;;4950480;28;20051;-54
2022/07/27 11:03:27;;;;;;;11.05;2.65;;;23.20;73.60;;;;;;4950112;28;20514;-55
2022/07/27 11:06:01;;;;;;;4.55;0.98;;;23.20;76.10;;;;;;4950622;28;20097;-56
2022/07/27 11:08:48;;;;;;;;;;;23.10;77.80;;;;;;4950911;28;20055;-54
2022/07/27 11:11:34;;;;;;;3.63;0.90;;;23.20;72.00;;;;;;4950299;28;19922;-55
2022/07/27 11:14:01;;;;;;;5.25;1.63;;;23.20;77.40;;;;;;4929899;29;20555;-55
2022/07/27 11:16:29;;;;;;;3.05;0.90;;;23.30;75.90;;;;;;4964724;28;20078;-53
2022/07/27 11:19:00;;;;;;;2.80;0.90;;;23.30;75.00;;;;;;4949988;28;20050;-54
2022/07/27 11:21:27;;;;;;;7.07;1.00;;;23.30;73.10;;;;;;4950046;28;20047;-53
2022/07/27 11:24:15;;;;;;;2.60;0.80;;;23.30;74.50;;;;;;4950163;28;20078;-56
2022/07/27 11:26:49;;;;;;;3.30;1.05;;;23.30;72.40;;;;;;4950054;28;20051;-50
2022/07/27 11:29:17;;;;;;;4.72;1.30;;;23.30;73.30;;;;;;4949669;28;20130;-52
2022/07/27 11:31:45;;;;;;;2.50;0.70;;;23.20;73.50;;;;;;4949970;28;20110;-52
2022/07/27 11:34:33;;;;;;;3.67;1.30;;;23.10;74.30;;;;;;4948773;29;20039;-50
2022/07/27 11:37:01;;;;;;;7.70;0.98;;;23.10;73.40;;;;;;4949880;28;20082;-52
2022/07/27 11:39:31;;;;;;;3.33;1.00;;;23.20;75.10;;;;;;4950169;28;20122;-55
2022/07/27 11:42:18;;;;;;;4.78;1.38;;;23.20;74.60;;;;;;4949696;28;20053;-50
2022/07/27 11:44:47;;;;;;;3.25;1.30;;;23.30;74.80;;;;;;4949425;28;20044;-53
2022/07/27 11:47:18;;;;;;;3.33;1.05;;;23.30;75.00;;;;;;4949574;28;20051;-53
2022/07/27 11:49:45;;;;;;;7.15;1.48;;;23.40;74.90;;;;;;4949869;28;20047;-54
2022/07/27 11:52:12;;;;;;;10.25;2.33;;;23.30;74.90;;;;;;4949580;28;20081;-54
2022/07/27 11:54:40;;;;;;;5.43;1.27;;;23.00;75.80;;;;;;4916308;29;20052;-52
2022/07/27 11:57:14;;;;;;;8.98;1.92;;;22.90;76.20;;;;;;4949992;28;20051;-54
2022/07/27 11:59:42;;;;;;;7.78;2.08;;;22.70;77.30;;;;;;4949382;28;20131;-53
2022/07/27 12:02:14;;;;;;;8.73;2.20;;;22.60;78.40;;;;;;4948223;29;20409;-54
2022/07/27 12:04:43;;;;;;;25.38;2.75;;;22.50;79.20;;;;;;4949465;28;20445;-55
2022/07/27 12:07:15;;;;;;;14.98;2.55;;;22.20;80.60;;;;;;4941821;29;20392;-52
2022/07/27 12:09:49;;;;;;;10.38;2.47;;;22.10;81.90;;;;;;4949486;28;20134;-56
2022/07/27 12:12:20;;;;;;;10.98;2.20;;;22.00;82.70;;;;;;4949528;28;20087;-52
2022/07/27 12:14:55;;;;;;;10.25;2.42;;;21.90;83.50;;;;;;4949487;29;20098;-51
2022/07/27 12:17:32;;;;;;;11.75;2.17;;;21.60;84.60;;;;;;4949327;28;20051;-53
2022/07/27 12:20:06;;;;;;;17.80;2.30;;;21.50;86.00;;;;;;4949432;28;20358;-54
2022/07/27 12:22:42;;;;;;;6.40;1.70;;;21.50;86.30;;;;;;4949514;29;20090;-53
2022/07/27 12:25:22;;;;;;;18.33;2.72;;;21.40;87.30;;;;;;4949477;28;20078;-55
2022/07/27 12:27:59;;;;;;;7.82;1.40;;;21.40;87.20;;;;;;4939748;29;20102;-52
2022/07/27 12:30:36;;;;;;;6.07;2.25;;;21.40;88.40;;;;;;4951407;28;20090;-52
2022/07/27 12:33:05;;;;;;;8.15;1.60;;;21.40;88.90;;;;;;4944091;29;20075;-53
2022/07/27 12:35:33;;;;;;;12.13;2.53;;;21.30;88.50;;;;;;4953136;28;20421;-55
2022/07/27 12:38:05;;;;;;;8.38;2.08;;;21.20;89.00;;;;;;4952892;28;20048;-55
2022/07/27 12:40:33;;;;;;;5.82;1.88;;;21.00;90.10;;;;;;4951659;29;20061;-55
2022/07/27 12:43:01;;;;;;;14.25;2.45;;;20.90;90.30;;;;;;4952500;28;20066;-55
2022/07/27 12:45:33;;;;;;;3.75;1.60;;;20.90;90.60;;;;;;4951709;29;20082;-49
2022/07/27 12:48:26;;;;;;;5.38;1.75;;;20.90;90.70;;;;;;4952304;29;20406;-52
2022/07/27 12:51:00;;;;;;;16.13;3.27;;;20.80;91.30;;;;;;4952366;29;20125;-54
2022/07/27 12:53:27;;;;;;;16.50;2.80;;;20.80;91.40;;;;;;4952497;28;20416;-55
2022/07/27 12:55:55;;;;;;;6.45;2.10;;;20.80;91.30;;;;;;4952734;29;20055;-53
2022/07/27 12:58:22;;;;;;;5.30;2.13;;;20.70;91.50;;;;;;4952370;28;20129;-52
2022/07/27 13:00:49;;;;;;;6.18;1.88;;;20.70;91.90;;;;;;4952704;28;20055;-53
2022/07/27 13:03:16;;;;;;;17.17;2.67;;;20.60;91.80;;;;;;4951980;28;20043;-53